sensor_id;sensor_type;location;lat;lon;timestamp;P1;durP1;ratioP1;P2;durP2;ratioP2
6300;SDS011;3183;51.010;6.898;2022-12-29T00:01:28;1.53;;;1.10;;
6300;SDS011;3183;51.010;6.898;2022-12-29T00:03:56;1.20;;;1.00;;
6300;SDS011;3183;51.010;6.898;2022-12-29T00:06:23;1.60;;;1.03;;
6300;SDS011;3183;51.010;6.898;2022-12-29T00:08:50;2.20;;;1.10;;
6300;SDS011;3183;51.010;6.898;2022-12-29T00:11:18;1.87;;;1.00;;
6300;SDS011;3183;51.010;6.898;2022-12-29T00:13:46;4.23;;;2.73;;
6300;SDS011;3183;51.010;6.898;2022-12-29T00:16:33;1.13;;;0.90;;
6300;SDS011;3183;51.010;6.898;2022-12-29T00:19:00;1.57;;;0.90;;
6300;SDS011;3183;51.010;6.898;2022-12-29T00:21:28;1.37;;;1.10;;
6300;SDS011;3183;51.010;6.898;2022-12-29T00:24:13;1.73;;;1.20;;
6300;SDS011;3183;51.010;6.898;2022-12-29T00:27:07;2.50;;;1.20;;
6300;SDS011;3183;51.010;6.898;2022-12-29T00:29:54;1.20;;;1.10;;
6300;SDS011;3183;51.010;6.898;2022-12-29T00:32:39;2.47;;;1.07;;
6300;SDS011;3183;51.010;6.898;2022-12-29T00:35:25;1.73;;;1.03;;
6300;SDS011;3183;51.010;6.898;2022-12-29T00:37:53;1.10;;;0.90;;
6300;SDS011;3183;51.010;6.898;2022-12-29T00:40:38;1.00;;;0.77;;
6300;SDS011;3183;51.010;6.898;2022-12-29T00:43:23;1.00;;;0.80;;
6300;SDS011;3183;51.010;6.898;2022-12-29T00:46:07;9.53;;;0.90;;
6300;SDS011;3183;51.010;6.898;2022-12-29T00:48:36;1.97;;;0.97;;
6300;SDS011;3183;51.010;6.898;2022-12-29T00:51:21;1.23;;;0.73;;
6300;SDS011;3183;51.010;6.898;2022-12-29T00:53:48;1.30;;;0.73;;
6300;SDS011;3183;51.010;6.898;2022-12-29T00:56:15;1.20;;;0.80;;
6300;SDS011;3183;51.010;6.898;2022-12-29T00:58:42;0.80;;;0.50;;
6300;SDS011;3183;51.010;6.898;2022-12-29T01:01:10;1.00;;;0.67;;
6300;SDS011;3183;51.010;6.898;2022-12-29T01:03:38;0.93;;;0.50;;
6300;SDS011;3183;51.010;6.898;2022-12-29T01:06:06;4.50;;;0.50;;
6300;SDS011;3183;51.010;6.898;2022-12-29T01:08:34;3.13;;;0.50;;
6300;SDS011;3183;51.010;6.898;2022-12-29T01:11:02;1.53;;;0.50;;
6300;SDS011;3183;51.010;6.898;2022-12-29T01:13:28;1.00;;;0.43;;
6300;SDS011;3183;51.010;6.898;2022-12-29T01:15:56;0.70;;;0.40;;
6300;SDS011;3183;51.010;6.898;2022-12-29T01:18:23;0.67;;;0.30;;
6300;SDS011;3183;51.010;6.898;2022-12-29T01:20:52;0.70;;;0.30;;
6300;SDS011;3183;51.010;6.898;2022-12-29T01:23:24;2.40;;;0.60;;
6300;SDS011;3183;51.010;6.898;2022-12-29T01:25:51;1.10;;;0.47;;
6300;SDS011;3183;51.010;6.898;2022-12-29T01:28:18;0.70;;;0.40;;
6300;SDS011;3183;51.010;6.898;2022-12-29T01:30:45;0.70;;;0.40;;
6300;SDS011;3183;51.010;6.898;2022-12-29T01:33:13;1.03;;;0.50;;
6300;SDS011;3183;51.010;6.898;2022-12-29T01:35:40;0.70;;;0.40;;
6300;SDS011;3183;51.010;6.898;2022-12-29T01:38:08;0.80;;;0.37;;
6300;SDS011;3183;51.010;6.898;2022-12-29T01:40:42;0.70;;;0.40;;
6300;SDS011;3183;51.010;6.898;2022-12-29T01:43:10;1.37;;;0.40;;
6300;SDS011;3183;51.010;6.898;2022-12-29T01:45:37;2.20;;;0.40;;
6300;SDS011;3183;51.010;6.898;2022-12-29T01:48:05;1.10;;;0.43;;
6300;SDS011;3183;51.010;6.898;2022-12-29T01:50:33;0.70;;;0.40;;
6300;SDS011;3183;51.010;6.898;2022-12-29T01:53:05;1.90;;;0.50;;
6300;SDS011;3183;51.010;6.898;2022-12-29T01:55:35;0.90;;;0.57;;
6300;SDS011;3183;51.010;6.898;2022-12-29T01:58:04;1.00;;;0.40;;
6300;SDS011;3183;51.010;6.898;2022-12-29T02:00:32;2.40;;;0.50;;
6300;SDS011;3183;51.010;6.898;2022-12-29T02:02:59;0.97;;;0.50;;
6300;SDS011;3183;51.010;6.898;2022-12-29T02:05:28;2.30;;;0.67;;
6300;SDS011;3183;51.010;6.898;2022-12-29T02:07:57;4.83;;;0.70;;
6300;SDS011;3183;51.010;6.898;2022-12-29T02:10:25;1.27;;;0.70;;
6300;SDS011;3183;51.010;6.898;2022-12-29T02:12:54;4.53;;;0.60;;
6300;SDS011;3183;51.010;6.898;2022-12-29T02:15:22;4.23;;;0.73;;
6300;SDS011;3183;51.010;6.898;2022-12-29T02:17:57;2.60;;;0.80;;
6300;SDS011;3183;51.010;6.898;2022-12-29T02:20:32;3.50;;;0.60;;
6300;SDS011;3183;51.010;6.898;2022-12-29T02:23:08;1.37;;;0.60;;
6300;SDS011;3183;51.010;6.898;2022-12-29T02:25:46;1.33;;;0.80;;
6300;SDS011;3183;51.010;6.898;2022-12-29T02:31:05;2.10;;;0.60;;
6300;SDS011;3183;51.010;6.898;2022-12-29T02:33:38;2.80;;;0.67;;
6300;SDS011;3183;51.010;6.898;2022-12-29T02:36:12;1.00;;;0.60;;
6300;SDS011;3183;51.010;6.898;2022-12-29T02:38:52;2.40;;;0.67;;
6300;SDS011;3183;51.010;6.898;2022-12-29T02:41:24;1.10;;;0.70;;
6300;SDS011;3183;51.010;6.898;2022-12-29T02:43:56;2.30;;;0.70;;
6300;SDS011;3183;51.010;6.898;2022-12-29T02:46:28;1.23;;;0.60;;
6300;SDS011;3183;51.010;6.898;2022-12-29T02:48:59;1.50;;;0.80;;
6300;SDS011;3183;51.010;6.898;2022-12-29T02:51:31;1.27;;;0.67;;
6300;SDS011;3183;51.010;6.898;2022-12-29T02:53:59;1.40;;;0.60;;
6300;SDS011;3183;51.010;6.898;2022-12-29T02:56:43;1.70;;;0.90;;
6300;SDS011;3183;51.010;6.898;2022-12-29T02:59:10;1.07;;;0.80;;
6300;SDS011;3183;51.010;6.898;2022-12-29T03:01:44;1.10;;;0.60;;
6300;SDS011;3183;51.010;6.898;2022-12-29T03:04:30;1.80;;;0.50;;
6300;SDS011;3183;51.010;6.898;2022-12-29T03:07:01;0.93;;;0.50;;
6300;SDS011;3183;51.010;6.898;2022-12-29T03:09:35;1.20;;;0.80;;
6300;SDS011;3183;51.010;6.898;2022-12-29T03:12:06;1.47;;;0.73;;
6300;SDS011;3183;51.010;6.898;2022-12-29T03:14:48;4.90;;;0.77;;
6300;SDS011;3183;51.010;6.898;2022-12-29T03:17:40;1.10;;;0.77;;
6300;SDS011;3183;51.010;6.898;2022-12-29T03:20:12;1.03;;;0.70;;
6300;SDS011;3183;51.010;6.898;2022-12-29T03:22:41;1.17;;;0.70;;
6300;SDS011;3183;51.010;6.898;2022-12-29T03:25:10;3.70;;;0.80;;
6300;SDS011;3183;51.010;6.898;2022-12-29T03:27:41;0.90;;;0.70;;
6300;SDS011;3183;51.010;6.898;2022-12-29T03:30:09;0.80;;;0.63;;
6300;SDS011;3183;51.010;6.898;2022-12-29T03:32:38;0.90;;;0.47;;
6300;SDS011;3183;51.010;6.898;2022-12-29T03:35:09;2.50;;;0.57;;
6300;SDS011;3183;51.010;6.898;2022-12-29T03:37:39;1.23;;;0.63;;
6300;SDS011;3183;51.010;6.898;2022-12-29T03:40:07;2.30;;;0.67;;
6300;SDS011;3183;51.010;6.898;2022-12-29T03:42:35;0.70;;;0.47;;
6300;SDS011;3183;51.010;6.898;2022-12-29T03:45:04;0.97;;;0.53;;
6300;SDS011;3183;51.010;6.898;2022-12-29T03:47:31;1.20;;;0.70;;
6300;SDS011;3183;51.010;6.898;2022-12-29T03:49:58;1.10;;;0.80;;
6300;SDS011;3183;51.010;6.898;2022-12-29T03:52:27;1.73;;;1.13;;
6300;SDS011;3183;51.010;6.898;2022-12-29T03:54:54;1.37;;;0.50;;
6300;SDS011;3183;51.010;6.898;2022-12-29T03:57:21;0.90;;;0.53;;
6300;SDS011;3183;51.010;6.898;2022-12-29T03:59:48;3.90;;;0.60;;
6300;SDS011;3183;51.010;6.898;2022-12-29T04:02:15;3.90;;;0.63;;
6300;SDS011;3183;51.010;6.898;2022-12-29T04:04:42;0.80;;;0.40;;
6300;SDS011;3183;51.010;6.898;2022-12-29T04:07:09;1.33;;;0.53;;
6300;SDS011;3183;51.010;6.898;2022-12-29T04:09:38;2.30;;;0.70;;
6300;SDS011;3183;51.010;6.898;2022-12-29T04:12:05;1.20;;;0.67;;
6300;SDS011;3183;51.010;6.898;2022-12-29T04:14:32;1.47;;;0.40;;
6300;SDS011;3183;51.010;6.898;2022-12-29T04:16:59;0.80;;;0.50;;
6300;SDS011;3183;51.010;6.898;2022-12-29T04:19:26;0.80;;;0.40;;
6300;SDS011;3183;51.010;6.898;2022-12-29T04:21:53;2.03;;;0.50;;
6300;SDS011;3183;51.010;6.898;2022-12-29T04:24:20;2.70;;;1.03;;
6300;SDS011;3183;51.010;6.898;2022-12-29T04:26:49;0.90;;;0.60;;
6300;SDS011;3183;51.010;6.898;2022-12-29T04:29:16;0.87;;;0.67;;
6300;SDS011;3183;51.010;6.898;2022-12-29T04:31:43;1.27;;;0.60;;
6300;SDS011;3183;51.010;6.898;2022-12-29T04:34:10;1.57;;;0.53;;
6300;SDS011;3183;51.010;6.898;2022-12-29T04:36:38;2.40;;;0.60;;
6300;SDS011;3183;51.010;6.898;2022-12-29T04:39:05;1.33;;;0.80;;
6300;SDS011;3183;51.010;6.898;2022-12-29T04:41:33;0.90;;;0.70;;
6300;SDS011;3183;51.010;6.898;2022-12-29T04:44:01;2.80;;;0.70;;
6300;SDS011;3183;51.010;6.898;2022-12-29T04:46:28;1.57;;;0.90;;
6300;SDS011;3183;51.010;6.898;2022-12-29T04:48:55;1.63;;;0.67;;
6300;SDS011;3183;51.010;6.898;2022-12-29T04:51:22;2.77;;;0.90;;
6300;SDS011;3183;51.010;6.898;2022-12-29T04:53:50;0.80;;;0.60;;
6300;SDS011;3183;51.010;6.898;2022-12-29T04:56:17;1.00;;;0.70;;
6300;SDS011;3183;51.010;6.898;2022-12-29T04:58:44;1.00;;;0.50;;
6300;SDS011;3183;51.010;6.898;2022-12-29T05:01:13;4.00;;;0.70;;
6300;SDS011;3183;51.010;6.898;2022-12-29T05:03:40;1.50;;;0.80;;
6300;SDS011;3183;51.010;6.898;2022-12-29T05:06:07;5.70;;;0.60;;
6300;SDS011;3183;51.010;6.898;2022-12-29T05:08:34;0.80;;;0.50;;
6300;SDS011;3183;51.010;6.898;2022-12-29T05:11:01;1.50;;;0.70;;
6300;SDS011;3183;51.010;6.898;2022-12-29T05:13:29;3.00;;;0.80;;
6300;SDS011;3183;51.010;6.898;2022-12-29T05:15:56;2.43;;;0.70;;
6300;SDS011;3183;51.010;6.898;2022-12-29T05:18:24;0.90;;;0.40;;
6300;SDS011;3183;51.010;6.898;2022-12-29T05:20:51;2.13;;;0.60;;
6300;SDS011;3183;51.010;6.898;2022-12-29T05:23:18;0.90;;;0.40;;
6300;SDS011;3183;51.010;6.898;2022-12-29T05:25:46;2.00;;;0.83;;
6300;SDS011;3183;51.010;6.898;2022-12-29T05:28:13;2.60;;;0.77;;
6300;SDS011;3183;51.010;6.898;2022-12-29T05:30:40;1.17;;;0.47;;
6300;SDS011;3183;51.010;6.898;2022-12-29T05:33:07;3.40;;;1.23;;
6300;SDS011;3183;51.010;6.898;2022-12-29T05:35:37;3.37;;;0.80;;
6300;SDS011;3183;51.010;6.898;2022-12-29T05:38:05;0.90;;;0.50;;
6300;SDS011;3183;51.010;6.898;2022-12-29T05:40:32;0.70;;;0.40;;
6300;SDS011;3183;51.010;6.898;2022-12-29T05:42:59;1.80;;;0.73;;
6300;SDS011;3183;51.010;6.898;2022-12-29T05:45:26;3.27;;;0.60;;
6300;SDS011;3183;51.010;6.898;2022-12-29T05:47:53;3.23;;;0.83;;
6300;SDS011;3183;51.010;6.898;2022-12-29T05:50:20;1.53;;;0.50;;
6300;SDS011;3183;51.010;6.898;2022-12-29T05:52:49;3.03;;;0.80;;
6300;SDS011;3183;51.010;6.898;2022-12-29T05:55:16;1.00;;;0.57;;
6300;SDS011;3183;51.010;6.898;2022-12-29T05:57:43;0.80;;;0.50;;
6300;SDS011;3183;51.010;6.898;2022-12-29T06:00:10;1.33;;;0.60;;
6300;SDS011;3183;51.010;6.898;2022-12-29T06:02:38;2.90;;;0.70;;
6300;SDS011;3183;51.010;6.898;2022-12-29T06:05:05;2.20;;;0.50;;
6300;SDS011;3183;51.010;6.898;2022-12-29T06:07:32;0.80;;;0.50;;
6300;SDS011;3183;51.010;6.898;2022-12-29T06:10:01;2.30;;;0.50;;
6300;SDS011;3183;51.010;6.898;2022-12-29T06:12:28;1.47;;;0.60;;
6300;SDS011;3183;51.010;6.898;2022-12-29T06:14:55;1.07;;;0.50;;
6300;SDS011;3183;51.010;6.898;2022-12-29T06:17:22;2.10;;;0.50;;
6300;SDS011;3183;51.010;6.898;2022-12-29T06:19:49;2.67;;;0.83;;
6300;SDS011;3183;51.010;6.898;2022-12-29T06:22:16;1.23;;;0.50;;
6300;SDS011;3183;51.010;6.898;2022-12-29T06:24:43;2.40;;;0.70;;
6300;SDS011;3183;51.010;6.898;2022-12-29T06:27:12;3.33;;;0.60;;
6300;SDS011;3183;51.010;6.898;2022-12-29T06:29:39;4.90;;;1.23;;
6300;SDS011;3183;51.010;6.898;2022-12-29T06:32:08;1.67;;;0.57;;
6300;SDS011;3183;51.010;6.898;2022-12-29T06:34:35;1.37;;;0.50;;
6300;SDS011;3183;51.010;6.898;2022-12-29T06:37:02;1.03;;;0.50;;
6300;SDS011;3183;51.010;6.898;2022-12-29T06:39:29;4.50;;;0.70;;
6300;SDS011;3183;51.010;6.898;2022-12-29T06:41:56;2.30;;;0.50;;
6300;SDS011;3183;51.010;6.898;2022-12-29T06:44:25;1.87;;;0.53;;
6300;SDS011;3183;51.010;6.898;2022-12-29T06:46:52;1.23;;;0.50;;
6300;SDS011;3183;51.010;6.898;2022-12-29T06:49:19;2.50;;;0.80;;
6300;SDS011;3183;51.010;6.898;2022-12-29T06:51:47;2.50;;;0.80;;
6300;SDS011;3183;51.010;6.898;2022-12-29T06:54:14;1.30;;;0.67;;
6300;SDS011;3183;51.010;6.898;2022-12-29T06:56:41;3.87;;;0.87;;
6300;SDS011;3183;51.010;6.898;2022-12-29T06:59:08;1.73;;;0.80;;
6300;SDS011;3183;51.010;6.898;2022-12-29T07:01:37;1.83;;;0.70;;
6300;SDS011;3183;51.010;6.898;2022-12-29T07:04:04;4.50;;;1.27;;
6300;SDS011;3183;51.010;6.898;2022-12-29T07:06:31;3.07;;;0.87;;
6300;SDS011;3183;51.010;6.898;2022-12-29T07:08:58;3.43;;;1.50;;
6300;SDS011;3183;51.010;6.898;2022-12-29T07:11:25;2.87;;;0.50;;
6300;SDS011;3183;51.010;6.898;2022-12-29T07:13:53;5.17;;;1.00;;
6300;SDS011;3183;51.010;6.898;2022-12-29T07:16:21;1.13;;;0.50;;
6300;SDS011;3183;51.010;6.898;2022-12-29T07:18:49;1.40;;;0.70;;
6300;SDS011;3183;51.010;6.898;2022-12-29T07:21:17;3.07;;;0.70;;
6300;SDS011;3183;51.010;6.898;2022-12-29T07:23:44;4.00;;;1.00;;
6300;SDS011;3183;51.010;6.898;2022-12-29T07:26:12;2.30;;;0.83;;
6300;SDS011;3183;51.010;6.898;2022-12-29T07:28:39;2.50;;;0.70;;
6300;SDS011;3183;51.010;6.898;2022-12-29T07:31:08;2.50;;;0.70;;
6300;SDS011;3183;51.010;6.898;2022-12-29T07:33:39;2.97;;;1.07;;
6300;SDS011;3183;51.010;6.898;2022-12-29T07:36:08;2.60;;;0.60;;
6300;SDS011;3183;51.010;6.898;2022-12-29T07:38:35;2.60;;;0.80;;
6300;SDS011;3183;51.010;6.898;2022-12-29T07:41:02;4.37;;;1.57;;
6300;SDS011;3183;51.010;6.898;2022-12-29T07:43:29;1.63;;;0.90;;
6300;SDS011;3183;51.010;6.898;2022-12-29T07:45:57;3.73;;;0.90;;
6300;SDS011;3183;51.010;6.898;2022-12-29T07:48:24;4.30;;;0.70;;
6300;SDS011;3183;51.010;6.898;2022-12-29T07:50:51;2.80;;;0.80;;
6300;SDS011;3183;51.010;6.898;2022-12-29T07:53:20;2.70;;;0.70;;
6300;SDS011;3183;51.010;6.898;2022-12-29T07:55:47;3.03;;;1.00;;
6300;SDS011;3183;51.010;6.898;2022-12-29T07:58:14;3.33;;;0.90;;
6300;SDS011;3183;51.010;6.898;2022-12-29T08:00:41;1.60;;;0.60;;
6300;SDS011;3183;51.010;6.898;2022-12-29T08:03:08;5.80;;;0.90;;
6300;SDS011;3183;51.010;6.898;2022-12-29T08:05:35;5.40;;;0.83;;
6300;SDS011;3183;51.010;6.898;2022-12-29T08:08:03;0.90;;;0.60;;
6300;SDS011;3183;51.010;6.898;2022-12-29T08:10:31;1.10;;;0.73;;
6300;SDS011;3183;51.010;6.898;2022-12-29T08:12:58;3.07;;;0.60;;
6300;SDS011;3183;51.010;6.898;2022-12-29T08:15:25;9.97;;;2.60;;
6300;SDS011;3183;51.010;6.898;2022-12-29T08:17:52;1.67;;;0.90;;
6300;SDS011;3183;51.010;6.898;2022-12-29T08:20:20;5.23;;;1.03;;
6300;SDS011;3183;51.010;6.898;2022-12-29T08:22:47;2.10;;;1.00;;
6300;SDS011;3183;51.010;6.898;2022-12-29T08:25:14;1.73;;;0.77;;
6300;SDS011;3183;51.010;6.898;2022-12-29T08:27:42;5.60;;;0.70;;
6300;SDS011;3183;51.010;6.898;2022-12-29T08:30:10;1.93;;;0.80;;
6300;SDS011;3183;51.010;6.898;2022-12-29T08:32:37;4.00;;;1.37;;
6300;SDS011;3183;51.010;6.898;2022-12-29T08:35:04;5.23;;;1.37;;
6300;SDS011;3183;51.010;6.898;2022-12-29T08:37:32;7.60;;;1.30;;
6300;SDS011;3183;51.010;6.898;2022-12-29T08:39:59;4.97;;;0.90;;
6300;SDS011;3183;51.010;6.898;2022-12-29T08:42:28;4.50;;;1.27;;
6300;SDS011;3183;51.010;6.898;2022-12-29T08:44:57;8.50;;;1.23;;
6300;SDS011;3183;51.010;6.898;2022-12-29T08:47:24;7.50;;;1.03;;
6300;SDS011;3183;51.010;6.898;2022-12-29T08:49:52;6.33;;;1.40;;
6300;SDS011;3183;51.010;6.898;2022-12-29T08:52:19;5.33;;;1.40;;
6300;SDS011;3183;51.010;6.898;2022-12-29T08:54:46;4.30;;;1.00;;
6300;SDS011;3183;51.010;6.898;2022-12-29T08:57:13;4.07;;;0.77;;
6300;SDS011;3183;51.010;6.898;2022-12-29T08:59:40;4.77;;;1.00;;
6300;SDS011;3183;51.010;6.898;2022-12-29T09:02:11;3.97;;;1.23;;
6300;SDS011;3183;51.010;6.898;2022-12-29T09:04:38;4.10;;;1.30;;
6300;SDS011;3183;51.010;6.898;2022-12-29T09:07:05;1.90;;;0.90;;
6300;SDS011;3183;51.010;6.898;2022-12-29T09:09:32;2.87;;;1.40;;
6300;SDS011;3183;51.010;6.898;2022-12-29T09:11:59;2.23;;;0.93;;
6300;SDS011;3183;51.010;6.898;2022-12-29T09:14:26;7.33;;;1.10;;
6300;SDS011;3183;51.010;6.898;2022-12-29T09:16:54;4.23;;;1.20;;
6300;SDS011;3183;51.010;6.898;2022-12-29T09:19:40;8.57;;;0.90;;
6300;SDS011;3183;51.010;6.898;2022-12-29T09:22:07;5.00;;;1.37;;
6300;SDS011;3183;51.010;6.898;2022-12-29T09:24:34;3.27;;;1.20;;
6300;SDS011;3183;51.010;6.898;2022-12-29T09:27:01;3.37;;;1.20;;
6300;SDS011;3183;51.010;6.898;2022-12-29T09:29:28;3.53;;;1.27;;
6300;SDS011;3183;51.010;6.898;2022-12-29T09:31:55;5.20;;;0.90;;
6300;SDS011;3183;51.010;6.898;2022-12-29T09:34:23;8.03;;;1.27;;
6300;SDS011;3183;51.010;6.898;2022-12-29T09:36:51;10.87;;;1.13;;
6300;SDS011;3183;51.010;6.898;2022-12-29T09:39:19;5.30;;;1.20;;
6300;SDS011;3183;51.010;6.898;2022-12-29T09:41:48;6.13;;;1.00;;
6300;SDS011;3183;51.010;6.898;2022-12-29T09:44:17;3.67;;;1.13;;
6300;SDS011;3183;51.010;6.898;2022-12-29T09:46:46;4.00;;;1.20;;
6300;SDS011;3183;51.010;6.898;2022-12-29T09:49:21;6.93;;;1.53;;
6300;SDS011;3183;51.010;6.898;2022-12-29T09:51:52;8.77;;;1.57;;
6300;SDS011;3183;51.010;6.898;2022-12-29T09:54:24;4.50;;;1.30;;
6300;SDS011;3183;51.010;6.898;2022-12-29T09:56:54;6.00;;;1.20;;
6300;SDS011;3183;51.010;6.898;2022-12-29T09:59:23;4.50;;;0.90;;
6300;SDS011;3183;51.010;6.898;2022-12-29T10:01:52;3.53;;;1.00;;
6300;SDS011;3183;51.010;6.898;2022-12-29T10:04:19;5.47;;;1.30;;
6300;SDS011;3183;51.010;6.898;2022-12-29T10:06:49;5.00;;;1.33;;
6300;SDS011;3183;51.010;6.898;2022-12-29T10:09:22;10.70;;;1.77;;
6300;SDS011;3183;51.010;6.898;2022-12-29T10:11:57;6.00;;;1.07;;
6300;SDS011;3183;51.010;6.898;2022-12-29T10:14:34;7.73;;;1.50;;
6300;SDS011;3183;51.010;6.898;2022-12-29T10:17:10;6.40;;;1.00;;
6300;SDS011;3183;51.010;6.898;2022-12-29T10:19:49;5.57;;;1.00;;
6300;SDS011;3183;51.010;6.898;2022-12-29T10:22:21;5.97;;;1.30;;
6300;SDS011;3183;51.010;6.898;2022-12-29T10:24:53;7.60;;;1.60;;
6300;SDS011;3183;51.010;6.898;2022-12-29T10:27:22;4.03;;;1.30;;
6300;SDS011;3183;51.010;6.898;2022-12-29T10:29:50;5.97;;;1.30;;
6300;SDS011;3183;51.010;6.898;2022-12-29T10:32:22;9.27;;;1.30;;
6300;SDS011;3183;51.010;6.898;2022-12-29T10:34:53;3.63;;;1.27;;
6300;SDS011;3183;51.010;6.898;2022-12-29T10:37:29;8.50;;;1.57;;
6300;SDS011;3183;51.010;6.898;2022-12-29T10:39:58;7.60;;;1.03;;
6300;SDS011;3183;51.010;6.898;2022-12-29T10:42:26;9.10;;;1.67;;
6300;SDS011;3183;51.010;6.898;2022-12-29T10:44:54;5.90;;;1.97;;
6300;SDS011;3183;51.010;6.898;2022-12-29T10:47:23;3.20;;;1.03;;
6300;SDS011;3183;51.010;6.898;2022-12-29T10:49:51;2.80;;;1.07;;
6300;SDS011;3183;51.010;6.898;2022-12-29T10:52:18;4.70;;;1.00;;
6300;SDS011;3183;51.010;6.898;2022-12-29T10:54:48;6.40;;;1.20;;
6300;SDS011;3183;51.010;6.898;2022-12-29T10:57:22;5.20;;;1.13;;
6300;SDS011;3183;51.010;6.898;2022-12-29T10:59:51;6.30;;;1.57;;
6300;SDS011;3183;51.010;6.898;2022-12-29T11:05:03;4.53;;;1.30;;
6300;SDS011;3183;51.010;6.898;2022-12-29T11:07:33;7.10;;;1.47;;
6300;SDS011;3183;51.010;6.898;2022-12-29T11:10:16;4.10;;;1.10;;
6300;SDS011;3183;51.010;6.898;2022-12-29T11:12:55;9.07;;;2.30;;
6300;SDS011;3183;51.010;6.898;2022-12-29T11:15:23;9.83;;;1.50;;
6300;SDS011;3183;51.010;6.898;2022-12-29T11:17:51;5.87;;;1.83;;
6300;SDS011;3183;51.010;6.898;2022-12-29T11:20:29;3.83;;;1.10;;
6300;SDS011;3183;51.010;6.898;2022-12-29T11:22:57;2.40;;;1.00;;
6300;SDS011;3183;51.010;6.898;2022-12-29T11:25:24;4.77;;;0.97;;
6300;SDS011;3183;51.010;6.898;2022-12-29T11:27:56;3.80;;;1.17;;
6300;SDS011;3183;51.010;6.898;2022-12-29T11:30:24;4.73;;;1.33;;
6300;SDS011;3183;51.010;6.898;2022-12-29T11:32:52;5.60;;;1.40;;
6300;SDS011;3183;51.010;6.898;2022-12-29T11:35:29;14.63;;;1.30;;
6300;SDS011;3183;51.010;6.898;2022-12-29T11:37:57;5.50;;;1.10;;
6300;SDS011;3183;51.010;6.898;2022-12-29T11:40:25;7.57;;;1.83;;
6300;SDS011;3183;51.010;6.898;2022-12-29T11:42:53;8.20;;;1.50;;
6300;SDS011;3183;51.010;6.898;2022-12-29T11:45:23;4.83;;;1.10;;
6300;SDS011;3183;51.010;6.898;2022-12-29T11:47:52;7.53;;;1.70;;
6300;SDS011;3183;51.010;6.898;2022-12-29T11:50:20;5.37;;;1.13;;
6300;SDS011;3183;51.010;6.898;2022-12-29T11:52:48;6.90;;;1.57;;
6300;SDS011;3183;51.010;6.898;2022-12-29T11:55:17;8.13;;;1.30;;
6300;SDS011;3183;51.010;6.898;2022-12-29T11:57:45;5.87;;;1.83;;
6300;SDS011;3183;51.010;6.898;2022-12-29T12:00:16;3.00;;;1.10;;
6300;SDS011;3183;51.010;6.898;2022-12-29T12:02:52;9.70;;;1.60;;
6300;SDS011;3183;51.010;6.898;2022-12-29T12:05:22;4.07;;;0.80;;
6300;SDS011;3183;51.010;6.898;2022-12-29T12:07:52;5.80;;;1.27;;
6300;SDS011;3183;51.010;6.898;2022-12-29T12:10:23;8.37;;;1.10;;
6300;SDS011;3183;51.010;6.898;2022-12-29T12:12:52;7.30;;;1.60;;
6300;SDS011;3183;51.010;6.898;2022-12-29T12:15:22;4.93;;;1.47;;
6300;SDS011;3183;51.010;6.898;2022-12-29T12:17:51;6.33;;;1.10;;
6300;SDS011;3183;51.010;6.898;2022-12-29T12:20:23;8.70;;;1.30;;
6300;SDS011;3183;51.010;6.898;2022-12-29T12:22:54;5.57;;;1.30;;
6300;SDS011;3183;51.010;6.898;2022-12-29T12:25:25;4.60;;;1.40;;
6300;SDS011;3183;51.010;6.898;2022-12-29T12:27:56;5.03;;;1.40;;
6300;SDS011;3183;51.010;6.898;2022-12-29T12:30:25;6.97;;;1.03;;
6300;SDS011;3183;51.010;6.898;2022-12-29T12:32:54;5.47;;;1.40;;
6300;SDS011;3183;51.010;6.898;2022-12-29T12:35:29;6.17;;;1.80;;
6300;SDS011;3183;51.010;6.898;2022-12-29T12:38:05;4.90;;;1.53;;
6300;SDS011;3183;51.010;6.898;2022-12-29T12:40:52;8.60;;;1.20;;
6300;SDS011;3183;51.010;6.898;2022-12-29T12:43:28;8.63;;;1.67;;
6300;SDS011;3183;51.010;6.898;2022-12-29T12:46:00;4.77;;;0.97;;
6300;SDS011;3183;51.010;6.898;2022-12-29T12:48:38;12.30;;;1.47;;
6300;SDS011;3183;51.010;6.898;2022-12-29T12:51:13;4.82;;;1.52;;
6300;SDS011;3183;51.010;6.898;2022-12-29T12:53:46;4.40;;;1.47;;
6300;SDS011;3183;51.010;6.898;2022-12-29T12:59:03;10.27;;;1.30;;
6300;SDS011;3183;51.010;6.898;2022-12-29T13:01:36;2.87;;;1.37;;
6300;SDS011;3183;51.010;6.898;2022-12-29T13:07:04;4.53;;;1.20;;
6300;SDS011;3183;51.010;6.898;2022-12-29T13:09:43;9.23;;;1.30;;
6300;SDS011;3183;51.010;6.898;2022-12-29T13:12:16;3.10;;;1.00;;
6300;SDS011;3183;51.010;6.898;2022-12-29T13:14:49;8.83;;;1.27;;
6300;SDS011;3183;51.010;6.898;2022-12-29T13:17:21;7.07;;;1.70;;
6300;SDS011;3183;51.010;6.898;2022-12-29T13:19:52;10.30;;;1.23;;
6300;SDS011;3183;51.010;6.898;2022-12-29T13:22:24;14.03;;;1.63;;
6300;SDS011;3183;51.010;6.898;2022-12-29T13:24:58;4.00;;;1.50;;
6300;SDS011;3183;51.010;6.898;2022-12-29T13:27:29;9.30;;;1.10;;
6300;SDS011;3183;51.010;6.898;2022-12-29T13:30:00;9.03;;;2.00;;
6300;SDS011;3183;51.010;6.898;2022-12-29T13:32:32;11.93;;;1.40;;
6300;SDS011;3183;51.010;6.898;2022-12-29T13:35:06;3.87;;;1.53;;
6300;SDS011;3183;51.010;6.898;2022-12-29T13:37:45;6.20;;;1.10;;
6300;SDS011;3183;51.010;6.898;2022-12-29T13:40:14;10.73;;;1.60;;
6300;SDS011;3183;51.010;6.898;2022-12-29T13:42:42;13.70;;;1.80;;
6300;SDS011;3183;51.010;6.898;2022-12-29T13:45:11;6.80;;;1.00;;
6300;SDS011;3183;51.010;6.898;2022-12-29T13:47:41;7.20;;;1.80;;
6300;SDS011;3183;51.010;6.898;2022-12-29T13:50:12;5.20;;;1.90;;
6300;SDS011;3183;51.010;6.898;2022-12-29T13:52:43;3.67;;;1.27;;
6300;SDS011;3183;51.010;6.898;2022-12-29T13:55:18;4.70;;;1.17;;
6300;SDS011;3183;51.010;6.898;2022-12-29T13:57:48;4.87;;;1.50;;
6300;SDS011;3183;51.010;6.898;2022-12-29T14:00:18;11.63;;;2.15;;
6300;SDS011;3183;51.010;6.898;2022-12-29T14:02:50;10.83;;;2.03;;
6300;SDS011;3183;51.010;6.898;2022-12-29T14:05:28;4.10;;;0.90;;
6300;SDS011;3183;51.010;6.898;2022-12-29T14:08:00;2.60;;;0.97;;
6300;SDS011;3183;51.010;6.898;2022-12-29T14:10:28;6.70;;;1.57;;
6300;SDS011;3183;51.010;6.898;2022-12-29T14:12:59;7.53;;;2.87;;
6300;SDS011;3183;51.010;6.898;2022-12-29T14:15:27;6.13;;;1.53;;
6300;SDS011;3183;51.010;6.898;2022-12-29T14:18:05;3.27;;;1.10;;
6300;SDS011;3183;51.010;6.898;2022-12-29T14:20:32;3.13;;;0.90;;
6300;SDS011;3183;51.010;6.898;2022-12-29T14:23:01;1.87;;;0.93;;
6300;SDS011;3183;51.010;6.898;2022-12-29T14:25:58;7.10;;;1.30;;
6300;SDS011;3183;51.010;6.898;2022-12-29T14:28:27;6.25;;;1.30;;
6300;SDS011;3183;51.010;6.898;2022-12-29T14:30:54;5.27;;;1.10;;
6300;SDS011;3183;51.010;6.898;2022-12-29T14:33:22;5.65;;;1.30;;
6300;SDS011;3183;51.010;6.898;2022-12-29T14:35:51;4.57;;;1.47;;
6300;SDS011;3183;51.010;6.898;2022-12-29T14:38:21;6.10;;;1.37;;
6300;SDS011;3183;51.010;6.898;2022-12-29T14:40:49;4.73;;;1.23;;
6300;SDS011;3183;51.010;6.898;2022-12-29T14:43:20;4.17;;;2.00;;
6300;SDS011;3183;51.010;6.898;2022-12-29T14:45:59;5.10;;;1.47;;
6300;SDS011;3183;51.010;6.898;2022-12-29T14:48:38;1.90;;;1.10;;
6300;SDS011;3183;51.010;6.898;2022-12-29T14:51:16;3.93;;;0.80;;
6300;SDS011;3183;51.010;6.898;2022-12-29T14:53:46;10.57;;;1.13;;
6300;SDS011;3183;51.010;6.898;2022-12-29T14:56:14;2.53;;;0.83;;
6300;SDS011;3183;51.010;6.898;2022-12-29T14:58:51;4.83;;;1.37;;
6300;SDS011;3183;51.010;6.898;2022-12-29T15:01:22;5.13;;;1.53;;
6300;SDS011;3183;51.010;6.898;2022-12-29T15:03:51;4.93;;;1.77;;
6300;SDS011;3183;51.010;6.898;2022-12-29T15:06:20;3.63;;;0.90;;
6300;SDS011;3183;51.010;6.898;2022-12-29T15:08:51;4.40;;;1.47;;
6300;SDS011;3183;51.010;6.898;2022-12-29T15:11:19;4.50;;;1.43;;
6300;SDS011;3183;51.010;6.898;2022-12-29T15:13:47;4.50;;;1.37;;
6300;SDS011;3183;51.010;6.898;2022-12-29T15:16:21;7.03;;;1.30;;
6300;SDS011;3183;51.010;6.898;2022-12-29T15:18:48;6.40;;;1.50;;
6300;SDS011;3183;51.010;6.898;2022-12-29T15:21:16;6.17;;;1.60;;
6300;SDS011;3183;51.010;6.898;2022-12-29T15:23:43;8.80;;;1.87;;
6300;SDS011;3183;51.010;6.898;2022-12-29T15:26:13;7.00;;;1.00;;
6300;SDS011;3183;51.010;6.898;2022-12-29T15:28:46;14.23;;;1.50;;
6300;SDS011;3183;51.010;6.898;2022-12-29T15:31:15;4.17;;;1.57;;
6300;SDS011;3183;51.010;6.898;2022-12-29T15:33:43;6.10;;;1.43;;
6300;SDS011;3183;51.010;6.898;2022-12-29T15:36:12;4.60;;;1.13;;
6300;SDS011;3183;51.010;6.898;2022-12-29T15:38:40;8.30;;;1.97;;
6300;SDS011;3183;51.010;6.898;2022-12-29T15:41:12;7.93;;;1.23;;
6300;SDS011;3183;51.010;6.898;2022-12-29T15:43:49;7.13;;;1.60;;